Time;durP1;ratioP1;P1;durP2;ratioP2;P2;SDS_P1;SDS_P2;PMS_P1;PMS_P2;Temp;Humidity;BMP_temperature;BMP_pressure;BME280_temperature;BME280_humidity;BME280_pressure;Samples;Min_cycle;Max_cycle;Signal;HPM_P1;HPM_P2
2023/07/23 00:02:30;;;;;;;2.45;2.25;;;;;;;21.75;39.00;99450.91;10422578;28;20348;-68
2023/07/23 00:07:31;;;;;;;4.07;2.67;;;;;;;20.64;40.44;99463.53;10422890;28;20242;-68
2023/07/23 00:12:33;;;;;;;3.45;2.53;;;;;;;20.35;41.22;99446.72;10430884;28;20295;-68
2023/07/23 00:17:35;;;;;;;3.65;2.45;;;;;;;21.99;39.07;99395.16;10430673;28;20814;-69
2023/07/23 00:22:38;;;;;;;3.85;2.22;;;;;;;20.31;41.44;99446.41;10432988;28;20619;-68
2023/07/23 00:27:40;;;;;;;5.47;2.92;;;;;;;21.39;39.87;99414.53;10427997;28;20240;-68
2023/07/23 00:32:41;;;;;;;3.90;2.30;;;;;;;20.15;41.80;99439.19;10430586;28;20608;-68
2023/07/23 00:37:43;;;;;;;2.97;2.63;;;;;;;20.30;41.29;99440.16;10428993;28;20262;-68
2023/07/23 00:42:45;;;;;;;4.95;2.70;;;;;;;21.02;40.59;99377.34;10428986;28;20782;-68
2023/07/23 00:47:47;;;;;;;3.10;2.38;;;;;;;19.62;42.54;99441.56;10429600;28;20298;-68
2023/07/23 00:52:49;;;;;;;2.78;2.40;;;;;;;21.21;40.70;99355.97;10430002;28;20277;-68
2023/07/23 00:57:50;;;;;;;3.17;2.70;;;;;;;20.69;41.25;99417.38;10429235;28;20277;-67
2023/07/23 01:02:52;;;;;;;4.55;2.60;;;;;;;19.89;42.17;99450.59;10426068;28;20240;-67
2023/07/23 01:07:55;;;;;;;2.75;2.40;;;;;;;19.61;42.99;99439.94;10430910;28;20240;-67
2023/07/23 01:12:58;;;;;;;5.32;2.70;;;;;;;20.95;41.04;99358.56;10427170;28;20319;-69
2023/07/23 01:18:03;;;;;;;3.35;2.53;;;;;;;21.02;41.07;99361.03;10430660;28;20318;-69
2023/07/23 01:23:05;;;;;;;3.53;2.72;;;;;;;20.25;42.07;99412.94;10423914;28;20232;-69
2023/07/23 01:28:07;;;;;;;3.50;3.00;;;;;;;19.29;43.64;99435.19;10425124;28;20235;-69
2023/07/23 01:33:09;;;;;;;3.00;2.70;;;;;;;19.95;42.74;99381.66;10428518;28;20789;-69
2023/07/23 01:38:13;;;;;;;3.17;2.88;;;;;;;18.76;44.28;99469.88;10425431;28;20881;-69
2023/07/23 01:43:15;;;;;;;5.80;3.10;;;;;;;20.18;42.17;99455.81;10442464;28;20236;-68
2023/07/23 01:48:17;;;;;;;4.72;2.78;;;;;;;20.63;41.93;99397.50;10430359;28;20243;-69
2023/07/23 01:53:18;;;;;;;4.72;3.08;;;;;;;19.85;43.13;99400.56;10426175;28;20706;-69
2023/07/23 01:58:20;;;;;;;2.97;2.67;;;;;;;20.10;42.38;99427.16;10429349;28;20316;-69
2023/07/23 02:03:22;;;;;;;3.20;2.90;;;;;;;18.44;44.90;99462.34;10414180;28;20231;-68
2023/07/23 02:08:24;;;;;;;5.20;3.45;;;;;;;18.45;45.69;99388.94;10405060;28;20239;-69
2023/07/23 02:13:27;;;;;;;3.60;2.85;;;;;;;18.51;45.03;99438.63;10406217;28;20421;-69
2023/07/23 02:18:29;;;;;;;3.28;2.97;;;;;;;20.38;42.71;99330.19;10401501;28;20228;-68
2023/07/23 02:23:31;;;;;;;4.33;3.13;;;;;;;17.40;46.73;99474.88;10399019;28;20220;-69
2023/07/23 02:28:32;;;;;;;4.80;3.07;;;;;;;18.33;45.80;99371.94;10397915;28;20497;-69
2023/07/23 02:33:34;;;;;;;3.33;2.73;;;;;;;18.77;45.18;99387.53;10401404;28;20328;-69
2023/07/23 02:38:36;;;;;;;4.47;3.00;;;;;;;18.78;45.07;99398.13;10399762;28;20235;-68
2023/07/23 02:43:37;;;;;;;3.43;2.80;;;;;;;18.74;45.32;99399.69;10400045;28;20271;-68
2023/07/23 02:48:39;;;;;;;3.53;2.87;;;;;;;18.87;45.32;99408.53;10401127;28;20232;-69
2023/07/23 02:53:41;;;;;;;5.70;2.80;;;;;;;19.48;44.32;99365.13;10403072;28;20272;-69
2023/07/23 02:58:42;;;;;;;4.67;3.40;;;;;;;17.85;46.75;99463.41;10397517;28;20974;-69
2023/07/23 03:03:47;;;;;;;3.50;2.93;;;;;;;17.66;47.70;99416.75;10408957;28;20239;-69
2023/07/23 03:08:49;;;;;;;3.10;2.80;;;;;;;17.17;48.51;99446.81;10423537;28;20223;-68
2023/07/23 03:13:50;;;;;;;3.77;3.03;;;;;;;17.39;48.73;99394.78;10425183;28;20892;-69
2023/07/23 03:18:52;;;;;;;3.40;2.83;;;;;;;18.68;46.60;99334.81;10423829;28;20244;-69
2023/07/23 03:23:54;;;;;;;5.67;3.10;;;;;;;17.87;48.16;99374.66;10420893;28;20611;-68
2023/07/23 03:28:55;;;;;;;3.97;3.10;;;;;;;17.10;50.03;99359.59;10421051;28;20816;-69
2023/07/23 03:33:57;;;;;;;4.07;3.13;;;;;;;17.18;49.59;99369.22;10424347;28;20309;-69
2023/07/23 03:38:59;;;;;;;5.13;3.00;;;;;;;17.01;50.31;99371.84;10424858;28;20234;-69
2023/07/23 03:44:01;;;;;;;3.50;2.63;;;;;;;17.63;48.72;99392.03;10425423;28;20687;-69
2023/07/23 03:49:02;;;;;;;3.53;2.90;;;;;;;17.54;48.76;99445.69;10437332;28;20247;-69
2023/07/23 03:54:04;;;;;;;3.73;2.90;;;;;;;18.27;48.01;99368.31;10431362;28;20236;-69
2023/07/23 03:59:06;;;;;;;3.73;2.93;;;;;;;18.33;47.76;99387.38;10436100;28;20228;-69
2023/07/23 04:04:07;;;;;;;3.40;3.07;;;;;;;17.97;49.02;99392.97;10430199;28;20284;-70
2023/07/23 04:09:09;;;;;;;8.93;2.90;;;;;;;17.27;49.05;99531.91;10432205;28;20240;-68
2023/07/23 04:14:11;;;;;;;2.97;2.30;;;;;;;17.81;48.88;99442.47;10434697;28;20685;-69
2023/07/23 04:19:13;;;;;;;3.23;2.60;;;;;;;18.24;47.92;99455.47;10429448;28;21161;-67
2023/07/23 04:24:15;;;;;;;3.60;3.03;;;;;;;18.13;48.40;99445.50;10426245;28;20318;-69
2023/07/23 04:29:16;;;;;;;3.20;2.73;;;;;;;17.20;49.70;99517.69;10416320;28;20729;-72
2023/07/23 04:34:18;;;;;;;4.07;2.80;;;;;;;17.98;48.39;99445.22;10393019;28;20232;-72
2023/07/23 04:39:20;;;;;;;3.87;2.87;;;;;;;18.23;47.69;99431.31;10393775;28;20240;-72
2023/07/23 04:44:22;;;;;;;4.90;2.70;;;;;;;18.20;47.35;99451.59;10396541;28;20236;-72
2023/07/23 04:49:23;;;;;;;2.70;2.33;;;;;;;18.18;46.92;99482.69;10390769;28;20758;-72
2023/07/23 04:54:25;;;;;;;3.30;2.40;;;;;;;19.06;45.70;99466.84;10386891;28;20298;-72
2023/07/23 04:59:27;;;;;;;3.33;2.50;;;;;;;18.43;46.64;99537.34;10387529;28;20237;-72
2023/07/23 05:04:29;;;;;;;3.03;2.53;;;;;;;18.80;45.96;99481.88;10407643;28;20235;-72
2023/07/23 05:09:30;;;;;;;4.57;2.60;;;;;;;18.53;45.98;99596.31;10429962;28;21930;-72
2023/07/23 05:14:34;;;;;;;3.13;2.10;;;;;;;18.89;46.07;99501.28;10430317;28;20262;-72
2023/07/23 05:19:35;;;;;;;3.87;2.40;;;;;;;18.44;46.07;99546.31;10427214;28;20710;-71
2023/07/23 05:24:37;;;;;;;2.70;2.13;;;;;;;17.77;46.60;99592.84;10432281;28;20263;-72
2023/07/23 05:29:39;;;;;;;3.60;2.33;;;;;;;17.98;46.36;99564.31;10430489;28;20286;-72
2023/07/23 05:34:41;;;;;;;3.23;2.47;;;;;;;18.36;45.32;99520.44;10430580;28;20305;-71
2023/07/23 05:39:42;;;;;;;2.63;2.13;;;;;;;18.39;44.80;99603.06;10433303;28;20346;-72
2023/07/23 05:44:44;;;;;;;3.80;2.60;;;;;;;18.97;44.01;99541.56;10432343;28;20224;-73
2023/07/23 05:49:45;;;;;;;2.63;2.10;;;;;;;18.95;43.75;99573.53;10430156;28;20311;-72
2023/07/23 05:54:47;;;;;;;2.90;2.60;;;;;;;18.81;44.19;99554.00;10431813;28;20228;-72
2023/07/23 05:59:49;;;;;;;2.53;2.20;;;;;;;18.95;44.06;99566.19;10430532;28;20713;-72
2023/07/23 06:04:50;;;;;;;2.87;2.33;;;;;;;18.92;43.98;99527.88;10428839;28;20326;-72
2023/07/23 06:09:52;;;;;;;4.68;2.00;;;;;;;18.80;43.78;99595.72;10429492;28;20675;-72
2023/07/23 06:14:54;;;;;;;2.80;2.40;;;;;;;18.89;44.13;99577.16;10429276;28;20374;-72
2023/07/23 06:19:56;;;;;;;3.38;2.67;;;;;;;19.02;44.03;99577.69;10428777;28;20228;-73
2023/07/23 06:24:57;;;;;;;4.18;2.95;;;;;;;19.52;43.59;99558.94;10423329;28;20314;-72
2023/07/23 06:29:59;;;;;;;3.65;2.40;;;;;;;18.92;44.56;99582.13;10424482;28;20224;-72
2023/07/23 06:35:01;;;;;;;3.55;2.20;;;;;;;19.57;43.86;99554.44;10429572;28;20228;-72
2023/07/23 06:40:07;;;;;;;3.83;2.40;;;;;;;19.38;44.03;99578.28;10428990;28;20317;-72
2023/07/23 06:45:10;;;;;;;2.35;2.13;;;;;;;20.25;44.05;99471.91;10426282;28;20235;-72
2023/07/23 06:50:11;;;;;;;3.35;2.40;;;;;;;19.45;45.22;99559.13;10431360;28;20276;-72
2023/07/23 06:55:13;;;;;;;2.95;2.65;;;;;;;20.07;44.68;99478.47;10428270;28;20283;-72
2023/07/23 07:00:15;;;;;;;2.35;2.15;;;;;;;19.72;45.33;99533.97;10430356;28;20314;-72
2023/07/23 07:05:17;;;;;;;3.60;2.65;;;;;;;20.80;43.90;99484.38;10424804;28;20281;-70
2023/07/23 07:10:20;;;;;;;3.80;2.67;;;;;;;20.00;45.05;99541.13;10426669;28;20235;-71
2023/07/23 07:15:21;;;;;;;2.88;2.50;;;;;;;20.21;45.06;99544.09;10410288;28;20239;-71
2023/07/23 07:20:23;;;;;;;3.92;2.53;;;;;;;20.40;44.77;99561.72;10429376;28;20612;-71
2023/07/23 07:25:25;;;;;;;4.13;2.60;;;;;;;21.13;44.24;99508.81;10417907;28;20220;-72
2023/07/23 07:30:27;;;;;;;8.38;2.60;;;;;;;22.42;42.31;99491.94;10434978;28;20234;-71
2023/07/23 07:35:28;;;;;;;2.63;2.33;;;;;;;21.45;43.49;99543.31;10434606;28;20606;-71
2023/07/23 07:40:31;;;;;;;3.88;2.40;;;;;;;20.97;44.46;99537.78;10436602;28;20228;-71
2023/07/23 07:45:32;;;;;;;2.85;2.30;;;;;;;21.65;43.68;99482.72;10439852;28;20878;-71
2023/07/23 07:50:34;;;;;;;4.32;2.33;;;;;;;21.99;43.01;99504.13;10436567;28;20228;-71
2023/07/23 07:55:41;;;;;;;2.45;2.00;;;;;;;22.16;43.06;99474.72;10436641;28;20331;-72
2023/07/23 08:00:43;;;;;;;2.20;2.00;;;;;;;21.90;42.33;99556.34;10442591;28;20325;-71
2023/07/23 08:05:45;;;;;;;2.35;2.08;;;;;;;21.40;43.23;99511.44;10435363;28;20246;-71
2023/07/23 08:10:47;;;;;;;4.13;2.03;;;;;;;21.68;42.21;99487.63;10438639;28;20513;-71
2023/07/23 08:15:49;;;;;;;1.88;1.67;;;;;;;20.99;43.08;99555.50;10436025;28;20319;-72
2023/07/23 08:20:57;;;;;;;1.92;1.63;;;;;;;23.22;40.44;99441.47;10435908;28;20231;-72
2023/07/23 08:26:01;;;;;;;1.98;1.67;;;;;;;21.63;42.49;99522.97;10429410;28;20232;-71
2023/07/23 08:31:03;;;;;;;2.33;1.95;;;;;;;22.96;40.87;99457.88;10434946;28;20238;-71
2023/07/23 08:36:05;;;;;;;2.92;1.60;;;;;;;22.05;41.63;99494.84;10432528;28;20675;-72
2023/07/23 08:41:22;;;;;;;2.42;1.65;;;;;;;23.29;40.01;99452.91;10435234;28;20388;-71
2023/07/23 08:46:25;;;;;;;2.90;2.10;;;;;;;21.46;41.64;99556.69;10437075;28;20278;-71
2023/07/23 08:51:39;;;;;;;3.15;2.50;;;;;;;23.22;39.66;99460.56;10435866;28;20216;-71
2023/07/23 08:56:42;;;;;;;1.90;1.80;;;;;;;22.11;40.62;99510.13;10432412;28;20236;-71
2023/07/23 09:01:46;;;;;;;2.05;1.58;;;;;;;22.47;40.25;99475.59;10433644;28;20240;-71
2023/07/23 09:06:51;;;;;;;6.68;2.65;;;;;;;21.91;40.72;99529.91;10436343;28;20682;-71
2023/07/23 09:11:52;;;;;;;1.92;1.80;;;;;;;21.87;40.40;99513.31;10433573;28;20608;-72
2023/07/23 09:16:54;;;;;;;1.63;1.52;;;;;;;23.10;39.86;99455.41;10431202;28;20236;-71
2023/07/23 09:21:59;;;;;;;3.70;2.55;;;;;;;24.85;37.80;99413.41;10432446;28;20680;-71
2023/07/23 09:27:03;;;;;;;2.20;1.77;;;;;;;22.79;39.71;99490.91;10434185;28;20715;-71
2023/07/23 09:32:22;;;;;;;3.63;1.98;;;;;;;23.58;39.35;99423.03;10414063;28;20315;-71
2023/07/23 09:37:28;;;;;;;2.78;2.10;;;;;;;23.06;40.00;99470.69;10379139;28;20323;-71
2023/07/23 09:42:29;;;;;;;2.08;1.85;;;;;;;22.48;40.11;99517.28;10371506;28;20293;-71
2023/07/23 09:47:31;;;;;;;3.25;2.22;;;;;;;23.05;40.17;99480.75;10390701;28;20351;-72
2023/07/23 09:52:35;;;;;;;2.22;2.03;;;;;;;23.48;39.13;99469.47;10425609;28;20291;-71
2023/07/23 09:57:38;;;;;;;2.78;2.05;;;;;;;23.73;38.75;99397.56;10386528;28;20757;-71
2023/07/23 10:02:42;;;;;;;2.17;2.05;;;;;;;24.04;38.85;99419.25;10383120;28;20357;-71
2023/07/23 10:07:46;;;;;;;2.78;1.90;;;;;;;23.83;38.49;99448.59;10388177;28;20232;-71
2023/07/23 10:12:48;;;;;;;3.13;1.98;;;;;;;23.97;38.74;99452.34;10386314;28;20423;-72
2023/07/23 10:17:54;;;;;;;4.32;2.45;;;;;;;24.16;38.74;99462.66;10386394;28;20782;-71
2023/07/23 10:22:56;;;;;;;2.30;2.03;;;;;;;24.90;38.34;99395.03;10386905;28;20240;-72
2023/07/23 10:28:00;;;;;;;3.88;2.20;;;;;;;25.22;37.97;99417.41;10384501;28;20255;-68
2023/07/23 10:33:11;;;;;;;4.20;2.60;;;;;;;24.02;38.68;99413.22;10384691;28;20331;-68
2023/07/23 10:38:19;;;;;;;2.28;2.05;;;;;;;23.41;38.38;99438.94;10382938;28;20733;-68
2023/07/23 10:43:22;;;;;;;5.22;2.92;;;;;;;24.94;37.50;99351.47;10381585;28;20229;-68
2023/07/23 10:48:24;;;;;;;2.65;2.45;;;;;;;24.31;37.61;99448.88;10381273;28;20707;-68
2023/07/23 10:53:30;;;;;;;2.65;2.35;;;;;;;23.14;38.01;99403.81;10381451;28;20278;-67
2023/07/23 10:58:32;;;;;;;2.65;2.42;;;;;;;24.25;36.51;99398.06;10382855;28;20323;-68
2023/07/23 11:06:32;;;;;;;2.25;2.05;;;;;;;24.16;37.36;99369.72;10354441;28;20826;-68
2023/07/23 11:11:39;;;;;;;2.10;1.90;;;;;;;25.01;36.80;99337.44;10348549;28;20225;-68
2023/07/23 11:16:41;;;;;;;2.40;2.03;;;;;;;24.73;36.21;99376.31;10356536;28;20608;-67
2023/07/23 11:21:52;;;;;;;2.25;1.85;;;;;;;23.93;37.09;99393.09;10354657;28;20257;-68
2023/07/23 11:26:59;;;;;;;2.28;2.08;;;;;;;24.12;36.47;99406.88;10354453;28;20244;-68
2023/07/23 11:32:02;;;;;;;2.22;1.90;;;;;;;24.44;36.74;99373.56;10351675;28;20229;-68
2023/07/23 11:37:09;;;;;;;2.95;2.20;;;;;;;24.67;36.75;99366.50;10341887;28;20348;-68
2023/07/23 11:42:17;;;;;;;4.25;2.00;;;;;;;24.25;36.96;99318.78;10337201;28;20239;-68
2023/07/23 11:47:19;;;;;;;2.90;2.10;;;;;;;24.98;36.81;99308.72;10354389;28;20240;-68
2023/07/23 11:52:24;;;;;;;2.30;2.10;;;;;;;24.12;37.65;99300.28;10354463;28;20213;-67
2023/07/23 11:57:26;;;;;;;2.50;2.30;;;;;;;24.88;36.91;99337.03;10353093;28;20676;-68
2023/07/23 12:02:28;;;;;;;3.58;2.03;;;;;;;25.34;35.67;99321.16;10355042;28;20233;-70
2023/07/23 12:07:30;;;;;;;3.17;2.20;;;;;;;26.50;35.00;99289.44;10352536;28;20221;-68
2023/07/23 12:12:33;;;;;;;2.10;1.70;;;;;;;25.10;36.27;99352.09;10355171;28;20301;-68
2023/07/23 12:17:37;;;;;;;1.90;1.80;;;;;;;24.89;35.33;99337.84;10326534;28;20234;-68
2023/07/23 12:22:53;;;;;;;2.58;2.00;;;;;;;26.11;34.59;99314.53;10326879;28;20245;-68
2023/07/23 12:27:54;;;;;;;1.83;1.73;;;;;;;25.43;35.21;99322.94;10328683;28;20714;-68
2023/07/23 12:32:56;;;;;;;3.03;1.80;;;;;;;24.93;35.52;99349.81;10323929;28;20263;-68
2023/07/23 12:37:58;;;;;;;2.55;2.03;;;;;;;26.17;34.45;99281.22;10329101;28;20229;-68
2023/07/23 12:42:59;;;;;;;2.20;2.00;;;;;;;25.15;34.58;99362.97;10326322;28;20311;-68
2023/07/23 12:48:01;;;;;;;4.55;2.10;;;;;;;25.56;34.90;99324.13;10327971;28;20299;-68
2023/07/23 12:53:03;;;;;;;3.22;2.22;;;;;;;25.23;35.14;99301.31;10332683;28;20240;-68
2023/07/23 12:58:05;;;;;;;2.20;2.00;;;;;;;25.23;35.15;99339.66;10330460;28;20698;-67
2023/07/23 13:03:06;;;;;;;2.38;2.08;;;;;;;25.57;34.80;99306.56;10331105;28;20244;-68
2023/07/23 13:08:11;;;;;;;2.22;2.03;;;;;;;26.12;34.80;99330.66;10332568;28;20614;-68
2023/07/23 13:13:12;;;;;;;2.08;1.83;;;;;;;25.24;35.20;99316.66;10317198;28;20225;-68
2023/07/23 13:18:14;;;;;;;1.90;1.75;;;;;;;25.24;35.85;99281.06;10335813;28;20324;-67
2023/07/23 13:23:16;;;;;;;2.35;2.05;;;;;;;26.28;34.37;99281.06;10325442;28;20241;-68
2023/07/23 13:28:17;;;;;;;1.70;1.60;;;;;;;25.63;34.49;99334.72;10329878;28;20445;-67
2023/07/23 13:33:19;;;;;;;4.43;1.60;;;;;;;25.71;34.81;99322.25;10327478;28;20261;-68
2023/07/23 13:38:22;;;;;;;2.08;1.65;;;;;;;26.14;34.52;99295.53;10324874;28;20221;-67
2023/07/23 13:43:24;;;;;;;3.28;1.90;;;;;;;25.55;35.32;99305.25;10328706;28;20864;-68
2023/07/23 13:48:25;;;;;;;2.00;1.85;;;;;;;26.07;34.49;99299.81;10333034;28;20252;-67
2023/07/23 13:53:27;;;;;;;2.05;1.85;;;;;;;25.73;34.50;99340.06;10327756;28;20843;-68
2023/07/23 13:58:29;;;;;;;4.15;2.13;;;;;;;25.84;34.59;99336.06;10324091;28;20235;-67
2023/07/23 14:03:31;;;;;;;2.20;1.63;;;;;;;26.00;33.78;99333.88;10317990;28;20684;-67
2023/07/23 14:08:33;;;;;;;2.13;1.88;;;;;;;27.99;32.22;99285.41;10331188;28;20568;-68
2023/07/23 14:13:35;;;;;;;2.95;1.85;;;;;;;25.93;33.99;99344.41;10323055;28;20233;-68
2023/07/23 14:18:37;;;;;;;3.28;2.13;;;;;;;26.92;33.77;99293.03;10327288;28;20655;-66
2023/07/23 14:23:38;;;;;;;3.38;2.35;;;;;;;26.73;34.81;99278.59;10331305;28;20810;-66
2023/07/23 14:28:40;;;;;;;6.18;2.33;;;;;;;25.53;36.25;99294.59;10323152;28;20237;-67
2023/07/23 14:33:42;;;;;;;3.88;2.30;;;;;;;24.57;36.96;99283.75;10326512;28;20319;-66
2023/07/23 14:38:44;;;;;;;2.78;1.90;;;;;;;25.56;36.03;99263.88;10327198;28;20303;-67
2023/07/23 14:43:45;;;;;;;2.53;2.30;;;;;;;25.21;36.76;99287.13;10324538;28;20241;-67
2023/07/23 14:48:47;;;;;;;3.88;2.40;;;;;;;26.12;36.04;99258.59;10317748;28;20226;-67
2023/07/23 14:53:52;;;;;;;2.45;2.22;;;;;;;26.54;35.38;99253.97;10319033;28;20296;-69
2023/07/23 14:58:54;;;;;;;2.38;2.10;;;;;;;26.49;35.20;99257.63;10321493;28;20280;-71
2023/07/23 15:03:56;;;;;;;3.33;2.10;;;;;;;26.15;35.47;99335.56;10322787;28;20746;-68
2023/07/23 15:08:58;;;;;;;3.20;2.13;;;;;;;27.17;34.33;99279.03;10326331;28;20233;-65
2023/07/23 15:14:00;;;;;;;3.05;2.40;;;;;;;27.10;32.75;99315.16;10322499;28;20634;-68
2023/07/23 15:19:02;;;;;;;2.97;1.95;;;;;;;26.42;32.86;99353.22;10324300;28;21174;-66
2023/07/23 15:24:05;;;;;;;3.85;2.20;;;;;;;27.64;31.98;99312.59;10322894;28;20270;-66
2023/07/23 15:29:07;;;;;;;3.65;2.13;;;;;;;26.34;33.63;99334.72;10322062;28;20285;-66
2023/07/23 15:34:09;;;;;;;2.10;1.90;;;;;;;26.55;33.55;99300.31;10325225;28;20240;-65
2023/07/23 15:39:11;;;;;;;2.92;2.25;;;;;;;26.52;33.75;99300.91;10317685;28;20320;-64
2023/07/23 15:44:16;;;;;;;2.78;2.10;;;;;;;26.67;33.63;99260.56;10320337;28;20257;-66
2023/07/23 15:49:17;;;;;;;2.67;2.00;;;;;;;27.05;33.89;99246.63;10328878;28;20728;-67
2023/07/23 15:54:19;;;;;;;3.10;2.33;;;;;;;27.46;33.19;99241.03;10328028;28;20245;-66
2023/07/23 15:59:21;;;;;;;3.90;2.42;;;;;;;26.62;33.51;99288.09;10327005;28;20241;-67
2023/07/23 16:04:22;;;;;;;2.25;2.00;;;;;;;27.29;33.71;99265.59;10327332;28;20744;-67
2023/07/23 16:09:24;;;;;;;3.17;2.35;;;;;;;27.57;32.95;99227.06;10322052;28;20234;-66
2023/07/23 16:14:26;;;;;;;2.70;2.30;;;;;;;26.93;33.35;99278.16;10329680;28;20229;-66
2023/07/23 16:19:28;;;;;;;2.85;2.20;;;;;;;27.30;33.23;99231.53;10329195;28;20666;-66
2023/07/23 16:24:30;;;;;;;2.75;2.28;;;;;;;26.79;33.72;99255.41;10324396;28;20299;-66
2023/07/23 16:29:31;;;;;;;5.05;2.70;;;;;;;27.39;33.34;99231.59;10325473;28;20714;-66
2023/07/23 16:34:33;;;;;;;3.25;2.30;;;;;;;26.91;32.92;99285.88;10329873;28;20246;-66
2023/07/23 16:39:35;;;;;;;3.70;2.67;;;;;;;26.56;33.62;99269.00;10327322;28;20312;-66
2023/07/23 16:44:37;;;;;;;3.92;2.50;;;;;;;26.28;33.71;99226.22;10325849;28;20240;-65
2023/07/23 16:49:41;;;;;;;3.58;2.80;;;;;;;26.17;33.61;99250.28;10325200;28;20328;-64
2023/07/23 16:54:43;;;;;;;3.38;2.75;;;;;;;26.06;33.75;99248.81;10319915;28;20352;-66
2023/07/23 16:59:46;;;;;;;5.18;3.15;;;;;;;26.36;33.88;99203.59;10317210;28;20230;-67
2023/07/23 17:04:48;;;;;;;5.18;2.88;;;;;;;26.39;33.44;99222.19;10325966;28;20233;-67
2023/07/23 17:09:50;;;;;;;3.85;2.83;;;;;;;27.61;32.38;99200.56;10322899;28;20266;-67
2023/07/23 17:14:53;;;;;;;3.17;2.70;;;;;;;26.86;33.54;99206.41;10319957;28;20237;-67
2023/07/23 17:19:54;;;;;;;3.63;2.78;;;;;;;27.10;33.54;99199.84;10319630;28;20236;-67
2023/07/23 17:24:56;;;;;;;2.80;2.42;;;;;;;26.58;34.65;99187.19;10325019;28;20233;-67
2023/07/23 17:29:58;;;;;;;4.18;2.85;;;;;;;26.17;34.63;99218.19;10325046;28;20241;-67
2023/07/23 17:35:00;;;;;;;4.50;2.80;;;;;;;27.00;34.26;99194.59;10320027;28;20289;-67
2023/07/23 17:40:02;;;;;;;4.30;2.80;;;;;;;27.04;33.76;99212.88;10320579;28;20287;-67
2023/07/23 17:45:04;;;;;;;3.40;2.53;;;;;;;27.07;33.46;99186.72;10319225;28;20234;-67
2023/07/23 17:50:16;;;;;;;4.10;3.10;;;;;;;27.27;33.65;99183.53;10320269;28;20233;-67
2023/07/23 17:55:17;;;;;;;3.15;2.60;;;;;;;27.19;33.73;99192.47;10329111;28;20237;-67
2023/07/23 18:00:19;;;;;;;3.58;2.80;;;;;;;26.71;33.54;99206.72;10320259;28;20336;-67
2023/07/23 18:05:21;;;;;;;4.40;2.63;;;;;;;27.26;32.77;99186.56;10324676;28;20333;-67
2023/07/23 18:10:23;;;;;;;3.28;2.60;;;;;;;26.68;33.33;99210.88;10325636;28;20379;-67
2023/07/23 18:15:25;;;;;;;5.60;2.85;;;;;;;26.62;33.10;99211.28;10326556;28;20233;-67
2023/07/23 18:20:26;;;;;;;5.88;2.88;;;;;;;26.67;32.80;99200.19;10321907;28;20276;-67
2023/07/23 18:25:28;;;;;;;3.28;2.40;;;;;;;26.39;33.80;99187.31;10323269;28;20237;-67
2023/07/23 18:30:30;;;;;;;3.88;2.90;;;;;;;26.91;33.46;99151.41;10320022;28;20247;-67
2023/07/23 18:35:32;;;;;;;5.03;2.90;;;;;;;26.87;34.04;99146.84;10320314;28;20290;-66
2023/07/23 18:40:33;;;;;;;4.93;2.90;;;;;;;26.85;33.74;99160.06;10324704;28;20237;-66
2023/07/23 18:45:35;;;;;;;3.50;2.90;;;;;;;26.88;33.77;99193.19;10322232;28;20237;-67
2023/07/23 18:50:37;;;;;;;3.90;2.90;;;;;;;26.39;34.63;99192.00;10324752;28;20240;-67
2023/07/23 18:55:38;;;;;;;3.03;2.55;;;;;;;25.90;35.62;99128.50;10322210;28;20725;-67
2023/07/23 19:00:44;;;;;;;4.10;2.80;;;;;;;26.00;35.70;99152.19;10316439;28;20932;-67
2023/07/23 19:05:45;;;;;;;3.63;2.42;;;;;;;26.31;35.52;99135.13;10320032;28;20394;-67
2023/07/23 19:10:47;;;;;;;4.38;2.95;;;;;;;26.12;35.87;99140.72;10321033;28;20271;-67
2023/07/23 19:15:49;;;;;;;6.47;3.10;;;;;;;26.06;36.04;99134.50;10326704;28;20649;-66
2023/07/23 19:20:51;;;;;;;4.28;3.10;;;;;;;27.03;35.13;99104.19;10323009;28;20328;-67
2023/07/23 19:25:52;;;;;;;3.65;2.88;;;;;;;26.52;35.85;99152.78;10333077;28;20229;-67
2023/07/23 19:30:54;;;;;;;4.15;3.00;;;;;;;25.23;37.22;99113.22;10330519;28;20225;-67
2023/07/23 19:35:56;;;;;;;4.47;3.08;;;;;;;25.31;37.01;99119.97;10327483;28;20233;-67
2023/07/23 19:40:58;;;;;;;5.90;3.30;;;;;;;25.93;36.49;99118.84;10326956;28;20230;-67
2023/07/23 19:45:59;;;;;;;4.15;3.22;;;;;;;26.24;35.82;99097.16;10327751;28;20249;-66
2023/07/23 19:51:01;;;;;;;4.70;3.30;;;;;;;24.91;37.34;99125.75;10331392;28;20316;-67
2023/07/23 19:56:04;;;;;;;6.50;3.33;;;;;;;26.46;35.88;99092.88;10326315;28;20790;-67
2023/07/23 20:01:06;;;;;;;5.18;3.30;;;;;;;25.28;36.65;99158.88;10325500;28;20241;-67
2023/07/23 20:06:08;;;;;;;5.57;3.65;;;;;;;25.52;36.72;99075.78;10330262;28;20237;-67
2023/07/23 20:11:11;;;;;;;5.18;3.60;;;;;;;26.73;35.32;99095.53;10329976;28;20246;-67
2023/07/23 20:16:13;;;;;;;4.85;3.72;;;;;;;24.90;37.06;99137.00;10327260;28;20308;-67
2023/07/23 20:21:15;;;;;;;4.70;3.22;;;;;;;24.90;37.07;99132.34;10329153;28;20229;-67
2023/07/23 20:26:29;;;;;;;5.63;3.67;;;;;;;25.87;36.28;99077.06;10327385;28;20242;-67
2023/07/23 20:31:32;;;;;;;5.05;3.53;;;;;;;25.40;36.34;99100.91;10333551;28;20409;-65
2023/07/23 20:36:34;;;;;;;4.70;3.33;;;;;;;24.70;37.74;99111.56;10324578;28;20239;-66
2023/07/23 20:41:36;;;;;;;6.60;3.90;;;;;;;24.67;37.70;99116.78;10328790;28;20958;-67
2023/07/23 20:46:38;;;;;;;7.40;4.05;;;;;;;23.87;39.13;99151.91;10325301;28;20233;-65
2023/07/23 20:51:40;;;;;;;5.70;3.65;;;;;;;25.97;36.86;99071.38;10327915;28;20707;-69
2023/07/23 20:56:42;;;;;;;5.82;4.20;;;;;;;25.91;36.52;99077.25;10325084;28;20230;-67
2023/07/23 21:01:43;;;;;;;6.68;3.97;;;;;;;25.51;36.02;99159.88;10328544;28;20328;-67
2023/07/23 21:06:45;;;;;;;9.80;4.25;;;;;;;23.96;39.18;99117.38;10331536;28;20710;-68
2023/07/23 21:11:47;;;;;;;6.30;4.03;;;;;;;24.23;38.43;99101.53;10326727;28;20337;-67
2023/07/23 21:16:49;;;;;;;5.78;4.03;;;;;;;24.27;37.74;99077.97;10323721;28;20704;-69
2023/07/23 21:21:50;;;;;;;6.53;4.25;;;;;;;24.79;37.21;99046.06;10324230;28;20240;-67
2023/07/23 21:26:52;;;;;;;6.38;4.28;;;;;;;24.71;36.90;99087.75;10321296;28;20269;-72
2023/07/23 21:31:54;;;;;;;7.95;4.15;;;;;;;25.57;35.93;99072.94;10323569;28;20615;-70
2023/07/23 21:36:56;;;;;;;5.85;4.25;;;;;;;25.96;35.78;99090.84;10320531;28;20668;-67
2023/07/23 21:41:57;;;;;;;8.20;4.63;;;;;;;25.28;37.03;99060.31;10323507;28;20250;-68
2023/07/23 21:46:59;;;;;;;5.22;3.78;;;;;;;23.39;39.49;99105.38;10320686;28;20832;-69
2023/07/23 21:52:01;;;;;;;6.35;4.32;;;;;;;22.47;40.90;99134.00;10325536;28;20249;-66
2023/07/23 21:57:03;;;;;;;7.68;4.97;;;;;;;23.00;39.18;99092.56;10323733;28;20264;-71
2023/07/23 22:02:05;;;;;;;6.55;4.47;;;;;;;24.03;38.69;99031.50;10327593;28;20305;-68
2023/07/23 22:07:07;;;;;;;6.88;4.25;;;;;;;22.15;40.28;99095.19;10321647;28;20249;-65
2023/07/23 22:12:09;;;;;;;7.38;4.63;;;;;;;23.33;39.40;99074.59;10326224;28;21032;-65
2023/07/23 22:17:10;;;;;;;7.03;4.78;;;;;;;24.00;38.94;99061.06;10322602;28;20307;-69
2023/07/23 22:22:12;;;;;;;9.05;4.68;;;;;;;22.27;40.48;99089.44;10328230;28;20245;-70
2023/07/23 22:27:14;;;;;;;6.57;4.43;;;;;;;23.30;39.55;99061.50;10321816;28;20325;-72
2023/07/23 22:32:16;;;;;;;7.63;5.00;;;;;;;22.35;41.79;99041.69;10319772;28;20233;-69
2023/07/23 22:37:17;;;;;;;6.28;4.25;;;;;;;21.30;44.85;99105.94;10323810;28;20225;-68
2023/07/23 22:42:19;;;;;;;8.98;5.40;;;;;;;21.81;44.48;99040.53;10326149;28;20613;-69
2023/07/23 22:47:21;;;;;;;10.27;5.03;;;;;;;22.86;43.45;99013.31;10309813;28;20237;-69
2023/07/23 22:52:23;;;;;;;7.65;4.50;;;;;;;23.00;43.33;99029.81;10324335;28;20214;-68
2023/07/23 22:57:28;;;;;;;6.93;4.38;;;;;;;23.03;42.97;99057.34;10322117;28;20257;-69
2023/07/23 23:02:29;;;;;;;6.75;4.75;;;;;;;22.68;43.98;99064.69;10325750;28;20241;-69
2023/07/23 23:07:31;;;;;;;8.50;5.07;;;;;;;23.51;43.04;99025.81;10324255;28;20257;-68
2023/07/23 23:12:33;;;;;;;9.48;4.95;;;;;;;24.41;41.31;99032.41;10328104;28;20279;-68
2023/07/23 23:17:35;;;;;;;7.82;5.05;;;;;;;23.94;41.97;99081.34;10327042;28;20562;-68
2023/07/23 23:22:36;;;;;;;7.22;4.88;;;;;;;23.55;42.89;99038.59;10323683;28;20233;-68
2023/07/23 23:27:38;;;;;;;6.93;4.90;;;;;;;23.26;43.44;99085.84;10321445;28;20288;-68